Cordele, Georgia
Current Conditions -  °F | °C
As of 9:55 AM on Saturday 01 Nov 2014 (Local Time) from KCKF Reporting Station
Clear Clear  
Wind Chill:   Ceiling: Unl
Heat Index:   Visibility: 10mi
Dew Point: -3°   Wind: 13mph
Humidity: 50%   Direction: 310°NW
Pressure: 30.04"   Gusts: 25mph
Location:  31.97°N, 83.78°W
Report Text: KCKF 011355Z AUTO 31011G22KT 10SM CLR 07/M03 A3004 RMK AO2 T00731026
Loading
Personal Weather Stations






























Interactive Weather Map
Tropical Storm Tracking
New forecast layout! Learn more

10-Day Weather Forecast

Advertisements
Track Severe Weather on mobile